This is the latest recevied weather packets stored in our database for station/object EFOU. If no packets are shown the sender has not sent any weather packets the latest 10 day(s).
| Time | Temp. | Humidity | Pressure | Rain* | Wind** | Luminosity | Snow |
|---|---|---|---|---|---|---|---|
| 1778398056 | 11.67° C | 35% | 1017.3 hPa | - | - | - | - |
| 1778396856 | 11.67° C | 37% | 1017.5 hPa | - | - | - | - |
| 1778395656 | 11.11° C | 38% | 1017.6 hPa | - | - | - | - |
| 1778394456 | 10° C | 41% | 1017.8 hPa | - | - | - | - |
| 1778393256 | 9.44° C | 43% | 1018 hPa | - | - | - | - |
| 1778392056 | 8.33° C | 44% | 1018.1 hPa | - | - | - | - |
| 1778390856 | 8.33° C | 45% | 1018.4 hPa | - | - | - | - |
| 1778388456 | 7.22° C | 47% | 1018.6 hPa | - | - | - | - |
| 1778387256 | 6.67° C | 48% | 1018.7 hPa | - | - | - | - |
| 1778386056 | 6.11° C | 48% | 1018.8 hPa | - | - | - | - |
| 1778384856 | 5.56° C | 49% | 1018.9 hPa | - | - | - | - |
| 1778383656 | 5.56° C | 48% | 1019.2 hPa | - | - | - | - |
| 1778382455 | 5° C | 49% | 1019.3 hPa | - | - | - | - |
| 1778381255 | 4.44° C | 53% | 1019.6 hPa | - | - | - | - |
| 1778380055 | 4.44° C | 53% | 1019.6 hPa | - | - | - | - |
| 1778378855 | 3.89° C | 53% | 1019.9 hPa | - | - | - | - |
| 1778377655 | 3.89° C | 51% | 1020 hPa | - | - | - | - |
| 1778376455 | 3.89° C | 52% | 1020.4 hPa | - | - | - | - |
| 1778375255 | 3.89° C | 52% | 1020.5 hPa | - | - | - | - |
| 1778374055 | 4.44° C | 51% | 1020.6 hPa | - | - | - | - |
| 1778372855 | 4.44° C | 52% | 1020.6 hPa | - | - | - | - |
| 1778371655 | 5° C | 48% | 1020.7 hPa | - | - | - | - |
| 1778370455 | 5° C | 47% | 1020.7 hPa | - | - | - | - |
| 1778369255 | 5.56° C | 44% | 1021 hPa | - | - | - | - |
| 1778368055 | 5° C | 47% | 1021.1 hPa | - | - | - | - |
* Rain since midnight (hover to see other rain measurements)
** Current wind speed in m/s (hover to see current wind gust speed)